sensor_id;sensor_type;location;lat;lon;timestamp;pressure;altitude;pressure_sealevel;temperature;humidity
47913;BME280;33676;51.006;17.180;2023-07-02T00:01:01;99031.67;;;18.74;83.32
47913;BME280;33676;51.006;17.180;2023-07-02T00:03:49;99038.34;;;18.75;83.29
47913;BME280;33676;51.006;17.180;2023-07-02T00:06:18;99042.84;;;18.76;83.43
47913;BME280;33676;51.006;17.180;2023-07-02T00:08:49;99051.25;;;18.78;83.43
47913;BME280;33676;51.006;17.180;2023-07-02T00:11:17;99054.60;;;18.78;83.43
47913;BME280;33676;51.006;17.180;2023-07-02T00:13:46;99059.30;;;18.78;83.33
47913;BME280;33676;51.006;17.180;2023-07-02T00:16:14;99061.71;;;18.77;83.41
47913;BME280;33676;51.006;17.180;2023-07-02T00:18:43;99062.90;;;18.76;83.48
47913;BME280;33676;51.006;17.180;2023-07-02T00:21:11;99062.92;;;18.74;83.50
47913;BME280;33676;51.006;17.180;2023-07-02T00:23:41;99060.88;;;18.72;83.62
47913;BME280;33676;51.006;17.180;2023-07-02T00:26:10;99061.93;;;18.71;83.60
47913;BME280;33676;51.006;17.180;2023-07-02T00:28:39;99064.46;;;18.70;83.81
47913;BME280;33676;51.006;17.180;2023-07-02T00:31:08;99061.88;;;18.67;83.74
47913;BME280;33676;51.006;17.180;2023-07-02T00:33:37;99065.92;;;18.64;83.84
47913;BME280;33676;51.006;17.180;2023-07-02T00:36:08;99063.70;;;18.62;83.95
47913;BME280;33676;51.006;17.180;2023-07-02T00:38:45;99064.83;;;18.60;84.06
47913;BME280;33676;51.006;17.180;2023-07-02T00:41:15;99064.81;;;18.59;84.11
47913;BME280;33676;51.006;17.180;2023-07-02T00:43:44;99062.20;;;18.58;84.18
47913;BME280;33676;51.006;17.180;2023-07-02T00:46:19;99066.41;;;18.59;84.39
47913;BME280;33676;51.006;17.180;2023-07-02T00:48:53;99064.08;;;18.59;84.40
47913;BME280;33676;51.006;17.180;2023-07-02T00:51:26;99069.94;;;18.60;84.58
47913;BME280;33676;51.006;17.180;2023-07-02T00:53:56;99068.98;;;18.61;84.65
47913;BME280;33676;51.006;17.180;2023-07-02T00:56:26;99066.96;;;18.61;84.61
47913;BME280;33676;51.006;17.180;2023-07-02T00:58:55;99073.88;;;18.64;84.77
47913;BME280;33676;51.006;17.180;2023-07-02T01:01:27;99065.92;;;18.64;84.79
47913;BME280;33676;51.006;17.180;2023-07-02T01:04:05;99065.77;;;18.65;84.82
47913;BME280;33676;51.006;17.180;2023-07-02T01:06:37;99062.33;;;18.67;84.89
47913;BME280;33676;51.006;17.180;2023-07-02T01:09:10;99062.38;;;18.68;84.93
47913;BME280;33676;51.006;17.180;2023-07-02T01:11:47;99062.13;;;18.69;84.92
47913;BME280;33676;51.006;17.180;2023-07-02T01:14:30;99061.04;;;18.70;84.92
47913;BME280;33676;51.006;17.180;2023-07-02T01:17:02;99060.37;;;18.71;84.94
47913;BME280;33676;51.006;17.180;2023-07-02T01:19:47;99063.63;;;18.72;84.85
47913;BME280;33676;51.006;17.180;2023-07-02T01:22:26;99067.47;;;18.72;84.86
47913;BME280;33676;51.006;17.180;2023-07-02T01:24:56;99064.53;;;18.72;84.87
47913;BME280;33676;51.006;17.180;2023-07-02T01:27:28;99063.48;;;18.71;84.87
47913;BME280;33676;51.006;17.180;2023-07-02T01:29:56;99063.69;;;18.70;84.80
47913;BME280;33676;51.006;17.180;2023-07-02T01:32:25;99061.80;;;18.70;84.82
47913;BME280;33676;51.006;17.180;2023-07-02T01:34:54;99063.97;;;18.69;84.89
47913;BME280;33676;51.006;17.180;2023-07-02T01:37:22;99062.58;;;18.69;84.98
47913;BME280;33676;51.006;17.180;2023-07-02T01:39:50;99058.45;;;18.70;84.97
47913;BME280;33676;51.006;17.180;2023-07-02T01:42:19;99055.36;;;18.70;85.05
47913;BME280;33676;51.006;17.180;2023-07-02T01:44:49;99053.80;;;18.71;85.20
47913;BME280;33676;51.006;17.180;2023-07-02T01:47:20;99055.13;;;18.72;85.31
47913;BME280;33676;51.006;17.180;2023-07-02T01:49:50;99056.52;;;18.73;85.31
47913;BME280;33676;51.006;17.180;2023-07-02T01:52:18;99055.91;;;18.74;85.51
47913;BME280;33676;51.006;17.180;2023-07-02T01:54:47;99054.23;;;18.76;85.67
47913;BME280;33676;51.006;17.180;2023-07-02T01:57:15;99058.77;;;18.78;85.74
47913;BME280;33676;51.006;17.180;2023-07-02T01:59:43;99062.20;;;18.80;85.92
47913;BME280;33676;51.006;17.180;2023-07-02T02:02:12;99064.45;;;18.83;86.31
47913;BME280;33676;51.006;17.180;2023-07-02T02:04:40;99063.37;;;18.87;86.49
47913;BME280;33676;51.006;17.180;2023-07-02T02:07:09;99072.69;;;18.90;86.53
47913;BME280;33676;51.006;17.180;2023-07-02T02:09:37;99072.70;;;18.93;86.57
47913;BME280;33676;51.006;17.180;2023-07-02T02:12:08;99075.35;;;18.94;86.59
47913;BME280;33676;51.006;17.180;2023-07-02T02:14:37;99075.60;;;18.95;86.55
47913;BME280;33676;51.006;17.180;2023-07-02T02:17:05;99082.51;;;18.95;86.60
47913;BME280;33676;51.006;17.180;2023-07-02T02:19:34;99080.83;;;18.94;86.60
47913;BME280;33676;51.006;17.180;2023-07-02T02:22:02;99082.50;;;18.92;86.59
47913;BME280;33676;51.006;17.180;2023-07-02T02:24:31;99084.13;;;18.91;86.53
47913;BME280;33676;51.006;17.180;2023-07-02T02:26:59;99082.48;;;18.90;86.51
47913;BME280;33676;51.006;17.180;2023-07-02T02:29:28;99082.54;;;18.88;86.48
47913;BME280;33676;51.006;17.180;2023-07-02T02:31:56;99086.33;;;18.86;86.54
47913;BME280;33676;51.006;17.180;2023-07-02T02:34:24;99089.52;;;18.83;86.60
47913;BME280;33676;51.006;17.180;2023-07-02T02:36:53;99089.14;;;18.82;86.58
47913;BME280;33676;51.006;17.180;2023-07-02T02:39:23;99087.95;;;18.80;86.68
47913;BME280;33676;51.006;17.180;2023-07-02T02:41:52;99089.27;;;18.80;86.79
47913;BME280;33676;51.006;17.180;2023-07-02T02:44:20;99095.91;;;18.79;86.93
47913;BME280;33676;51.006;17.180;2023-07-02T02:46:49;99099.59;;;18.79;87.04
47913;BME280;33676;51.006;17.180;2023-07-02T02:49:17;99098.33;;;18.80;87.11
47913;BME280;33676;51.006;17.180;2023-07-02T02:51:45;99098.54;;;18.79;87.18
47913;BME280;33676;51.006;17.180;2023-07-02T02:54:14;99099.19;;;18.80;87.24
47913;BME280;33676;51.006;17.180;2023-07-02T02:56:42;99100.98;;;18.80;87.33
47913;BME280;33676;51.006;17.180;2023-07-02T02:59:11;99099.60;;;18.79;87.45
47913;BME280;33676;51.006;17.180;2023-07-02T03:01:39;99098.81;;;18.79;87.45
47913;BME280;33676;51.006;17.180;2023-07-02T03:04:08;99097.91;;;18.78;87.54
47913;BME280;33676;51.006;17.180;2023-07-02T03:06:36;99096.23;;;18.77;87.66
47913;BME280;33676;51.006;17.180;2023-07-02T03:09:05;99097.13;;;18.77;87.69
47913;BME280;33676;51.006;17.180;2023-07-02T03:11:33;99096.07;;;18.77;87.77
47913;BME280;33676;51.006;17.180;2023-07-02T03:14:02;99097.17;;;18.76;87.94
47913;BME280;33676;51.006;17.180;2023-07-02T03:16:30;99091.66;;;18.77;88.05
47913;BME280;33676;51.006;17.180;2023-07-02T03:18:59;99089.33;;;18.78;88.11
47913;BME280;33676;51.006;17.180;2023-07-02T03:21:28;99090.93;;;18.79;88.15
47913;BME280;33676;51.006;17.180;2023-07-02T03:23:58;99089.91;;;18.80;88.20
47913;BME280;33676;51.006;17.180;2023-07-02T03:26:26;99091.76;;;18.81;88.23
47913;BME280;33676;51.006;17.180;2023-07-02T03:28:55;99094.83;;;18.83;88.29
47913;BME280;33676;51.006;17.180;2023-07-02T03:31:23;99100.05;;;18.85;88.41
47913;BME280;33676;51.006;17.180;2023-07-02T03:33:51;99095.73;;;18.87;88.47
47913;BME280;33676;51.006;17.180;2023-07-02T03:36:20;99097.16;;;18.89;88.51
47913;BME280;33676;51.006;17.180;2023-07-02T03:38:48;99092.27;;;18.91;88.54
47913;BME280;33676;51.006;17.180;2023-07-02T03:41:17;99091.20;;;18.93;88.59
47913;BME280;33676;51.006;17.180;2023-07-02T03:43:45;99097.75;;;18.96;88.55
47913;BME280;33676;51.006;17.180;2023-07-02T03:46:14;99095.54;;;18.99;88.66
47913;BME280;33676;51.006;17.180;2023-07-02T03:48:42;99099.27;;;19.02;88.70
47913;BME280;33676;51.006;17.180;2023-07-02T03:51:11;99104.39;;;19.05;88.73
47913;BME280;33676;51.006;17.180;2023-07-02T03:53:43;99106.39;;;19.07;88.77
47913;BME280;33676;51.006;17.180;2023-07-02T03:56:11;99113.23;;;19.09;88.82
47913;BME280;33676;51.006;17.180;2023-07-02T03:58:40;99110.45;;;19.11;88.84
47913;BME280;33676;51.006;17.180;2023-07-02T04:01:09;99110.24;;;19.13;88.86
47913;BME280;33676;51.006;17.180;2023-07-02T04:03:37;99112.45;;;19.15;88.89
47913;BME280;33676;51.006;17.180;2023-07-02T04:06:06;99118.76;;;19.16;88.93
47913;BME280;33676;51.006;17.180;2023-07-02T04:08:35;99120.02;;;19.19;88.99
47913;BME280;33676;51.006;17.180;2023-07-02T04:11:03;99122.89;;;19.21;89.02
47913;BME280;33676;51.006;17.180;2023-07-02T04:13:31;99120.23;;;19.22;88.97
47913;BME280;33676;51.006;17.180;2023-07-02T04:16:00;99118.52;;;19.23;88.99
47913;BME280;33676;51.006;17.180;2023-07-02T04:18:28;99123.45;;;19.24;89.03
47913;BME280;33676;51.006;17.180;2023-07-02T04:21:01;99124.42;;;19.26;89.11
47913;BME280;33676;51.006;17.180;2023-07-02T04:23:29;99121.23;;;19.27;89.04
47913;BME280;33676;51.006;17.180;2023-07-02T04:25:58;99128.48;;;19.29;89.07
47913;BME280;33676;51.006;17.180;2023-07-02T04:28:47;99126.67;;;19.30;89.07
47913;BME280;33676;51.006;17.180;2023-07-02T04:31:15;99130.07;;;19.32;89.13
47913;BME280;33676;51.006;17.180;2023-07-02T04:33:44;99134.40;;;19.34;89.09
47913;BME280;33676;51.006;17.180;2023-07-02T04:36:12;99134.00;;;19.35;89.15
47913;BME280;33676;51.006;17.180;2023-07-02T04:38:41;99138.61;;;19.38;89.28
47913;BME280;33676;51.006;17.180;2023-07-02T04:41:09;99144.72;;;19.40;89.29
47913;BME280;33676;51.006;17.180;2023-07-02T04:43:38;99144.71;;;19.41;89.29
47913;BME280;33676;51.006;17.180;2023-07-02T04:46:07;99149.52;;;19.44;89.37
47913;BME280;33676;51.006;17.180;2023-07-02T04:48:36;99153.84;;;19.47;89.29
47913;BME280;33676;51.006;17.180;2023-07-02T04:51:04;99155.10;;;19.51;89.44
47913;BME280;33676;51.006;17.180;2023-07-02T04:53:33;99157.60;;;19.54;89.41
47913;BME280;33676;51.006;17.180;2023-07-02T04:56:01;99155.85;;;19.56;89.44
47913;BME280;33676;51.006;17.180;2023-07-02T04:58:29;99156.34;;;19.59;89.49
47913;BME280;33676;51.006;17.180;2023-07-02T05:00:58;99158.21;;;19.64;89.49
47913;BME280;33676;51.006;17.180;2023-07-02T05:03:26;99156.26;;;19.70;89.65
47913;BME280;33676;51.006;17.180;2023-07-02T05:05:55;99155.90;;;19.78;89.73
47913;BME280;33676;51.006;17.180;2023-07-02T05:08:23;99159.45;;;19.85;89.69
47913;BME280;33676;51.006;17.180;2023-07-02T05:10:52;99160.10;;;19.89;89.69
47913;BME280;33676;51.006;17.180;2023-07-02T05:13:20;99165.59;;;19.92;89.56
47913;BME280;33676;51.006;17.180;2023-07-02T05:15:49;99165.83;;;19.94;89.62
47913;BME280;33676;51.006;17.180;2023-07-02T05:18:17;99164.27;;;19.96;89.60
47913;BME280;33676;51.006;17.180;2023-07-02T05:20:46;99166.77;;;19.99;89.54
47913;BME280;33676;51.006;17.180;2023-07-02T05:23:15;99167.25;;;20.02;89.59
47913;BME280;33676;51.006;17.180;2023-07-02T05:25:43;99169.38;;;20.04;89.62
47913;BME280;33676;51.006;17.180;2023-07-02T05:28:14;99171.13;;;20.07;89.74
47913;BME280;33676;51.006;17.180;2023-07-02T05:30:42;99171.34;;;20.08;89.68
47913;BME280;33676;51.006;17.180;2023-07-02T05:33:11;99177.89;;;20.09;89.68
47913;BME280;33676;51.006;17.180;2023-07-02T05:35:39;99180.52;;;20.10;89.63
47913;BME280;33676;51.006;17.180;2023-07-02T05:38:08;99182.92;;;20.10;89.60
47913;BME280;33676;51.006;17.180;2023-07-02T05:40:37;99184.80;;;20.11;89.51
47913;BME280;33676;51.006;17.180;2023-07-02T05:43:05;99187.63;;;20.12;89.65
47913;BME280;33676;51.006;17.180;2023-07-02T05:45:34;99191.14;;;20.14;89.70
47913;BME280;33676;51.006;17.180;2023-07-02T05:48:03;99191.08;;;20.13;89.50
47913;BME280;33676;51.006;17.180;2023-07-02T05:50:31;99191.06;;;20.09;89.61
47913;BME280;33676;51.006;17.180;2023-07-02T05:53:00;99191.94;;;20.07;89.52
47913;BME280;33676;51.006;17.180;2023-07-02T05:55:28;99190.66;;;20.06;89.57
47913;BME280;33676;51.006;17.180;2023-07-02T05:57:56;99192.19;;;20.05;89.73
47913;BME280;33676;51.006;17.180;2023-07-02T06:00:29;99197.09;;;20.05;89.73
47913;BME280;33676;51.006;17.180;2023-07-02T06:02:58;99195.95;;;20.06;89.75
47913;BME280;33676;51.006;17.180;2023-07-02T06:05:26;99194.84;;;20.08;89.80
47913;BME280;33676;51.006;17.180;2023-07-02T06:07:55;99189.75;;;20.14;89.89
47913;BME280;33676;51.006;17.180;2023-07-02T06:10:24;99184.63;;;20.22;90.00
47913;BME280;33676;51.006;17.180;2023-07-02T06:12:52;99189.34;;;20.31;90.26
47913;BME280;33676;51.006;17.180;2023-07-02T06:15:20;99187.98;;;20.40;90.18
47913;BME280;33676;51.006;17.180;2023-07-02T06:17:49;99192.05;;;20.50;90.29
47913;BME280;33676;51.006;17.180;2023-07-02T06:20:18;99190.42;;;20.58;90.22
47913;BME280;33676;51.006;17.180;2023-07-02T06:22:47;99187.82;;;20.68;90.27
47913;BME280;33676;51.006;17.180;2023-07-02T06:25:15;99191.23;;;20.80;90.47
47913;BME280;33676;51.006;17.180;2023-07-02T06:27:44;99193.07;;;20.90;90.32
47913;BME280;33676;51.006;17.180;2023-07-02T06:30:12;99196.03;;;20.97;90.18
47913;BME280;33676;51.006;17.180;2023-07-02T06:32:41;99196.55;;;21.01;90.06
47913;BME280;33676;51.006;17.180;2023-07-02T06:35:09;99202.30;;;20.98;89.48
47913;BME280;33676;51.006;17.180;2023-07-02T06:37:38;99205.16;;;20.90;89.19
47913;BME280;33676;51.006;17.180;2023-07-02T06:40:07;99205.40;;;20.83;89.15
47913;BME280;33676;51.006;17.180;2023-07-02T06:42:35;99206.80;;;20.76;89.07
47913;BME280;33676;51.006;17.180;2023-07-02T06:45:05;99214.95;;;20.68;88.92
47913;BME280;33676;51.006;17.180;2023-07-02T06:47:33;99213.17;;;20.61;88.90
47913;BME280;33676;51.006;17.180;2023-07-02T06:50:02;99209.90;;;20.56;88.95
47913;BME280;33676;51.006;17.180;2023-07-02T06:52:31;99210.08;;;20.52;88.96
47913;BME280;33676;51.006;17.180;2023-07-02T06:56:59;99207.65;;;20.53;89.07
47913;BME280;33676;51.006;17.180;2023-07-02T06:59:27;99208.23;;;20.52;89.26
47913;BME280;33676;51.006;17.180;2023-07-02T07:01:57;99206.51;;;20.52;89.31
47913;BME280;33676;51.006;17.180;2023-07-02T07:04:26;99210.16;;;20.53;89.44
47913;BME280;33676;51.006;17.180;2023-07-02T07:08:40;99217.16;;;20.54;89.71
47913;BME280;33676;51.006;17.180;2023-07-02T07:11:09;99229.97;;;20.43;89.62
47913;BME280;33676;51.006;17.180;2023-07-02T07:13:37;99241.22;;;20.32;89.85
47913;BME280;33676;51.006;17.180;2023-07-02T07:16:05;99240.16;;;20.14;90.03
47913;BME280;33676;51.006;17.180;2023-07-02T07:18:34;99243.98;;;19.85;89.69
47913;BME280;33676;51.006;17.180;2023-07-02T07:21:03;99249.36;;;19.59;89.58
47913;BME280;33676;51.006;17.180;2023-07-02T07:23:31;99253.55;;;19.37;90.08
47913;BME280;33676;51.006;17.180;2023-07-02T07:26:00;99242.35;;;19.23;90.53
47913;BME280;33676;51.006;17.180;2023-07-02T07:28:28;99244.06;;;19.15;91.14
47913;BME280;33676;51.006;17.180;2023-07-02T07:30:56;99242.72;;;19.20;91.62
47913;BME280;33676;51.006;17.180;2023-07-02T07:33:25;99237.89;;;19.29;92.17
47913;BME280;33676;51.006;17.180;2023-07-02T07:35:53;99242.46;;;19.38;92.55
47913;BME280;33676;51.006;17.180;2023-07-02T07:38:22;99242.30;;;19.42;92.80
47913;BME280;33676;51.006;17.180;2023-07-02T07:40:51;99236.54;;;19.42;92.82
47913;BME280;33676;51.006;17.180;2023-07-02T07:43:19;99237.85;;;19.44;92.87
47913;BME280;33676;51.006;17.180;2023-07-02T07:45:48;99237.33;;;19.55;93.33
47913;BME280;33676;51.006;17.180;2023-07-02T07:48:16;99244.39;;;19.65;93.45
47913;BME280;33676;51.006;17.180;2023-07-02T07:50:44;99239.42;;;19.75;93.32
47913;BME280;33676;51.006;17.180;2023-07-02T07:53:13;99242.50;;;19.92;93.51
47913;BME280;33676;51.006;17.180;2023-07-02T07:55:42;99244.66;;;20.13;93.99
47913;BME280;33676;51.006;17.180;2023-07-02T07:58:11;99247.17;;;20.38;94.26
47913;BME280;33676;51.006;17.180;2023-07-02T08:00:39;99246.54;;;20.55;93.88
47913;BME280;33676;51.006;17.180;2023-07-02T08:03:10;99243.14;;;20.71;93.48
47913;BME280;33676;51.006;17.180;2023-07-02T08:05:39;99240.44;;;20.87;93.40
47913;BME280;33676;51.006;17.180;2023-07-02T08:08:07;99239.23;;;21.02;93.08
47913;BME280;33676;51.006;17.180;2023-07-02T08:10:36;99234.59;;;21.11;92.38
47913;BME280;33676;51.006;17.180;2023-07-02T08:13:05;99239.46;;;21.13;91.99
47913;BME280;33676;51.006;17.180;2023-07-02T08:15:33;99241.05;;;21.09;91.86
47913;BME280;33676;51.006;17.180;2023-07-02T08:18:02;99241.77;;;21.02;91.54
47913;BME280;33676;51.006;17.180;2023-07-02T08:20:32;99245.20;;;20.93;91.52
47913;BME280;33676;51.006;17.180;2023-07-02T08:23:00;99246.46;;;20.87;91.47
47913;BME280;33676;51.006;17.180;2023-07-02T08:25:29;99249.79;;;20.83;91.54
47913;BME280;33676;51.006;17.180;2023-07-02T08:27:58;99250.61;;;20.81;91.47
47913;BME280;33676;51.006;17.180;2023-07-02T08:30:26;99252.91;;;20.75;91.35
47913;BME280;33676;51.006;17.180;2023-07-02T08:32:55;99253.80;;;20.68;91.33
47913;BME280;33676;51.006;17.180;2023-07-02T08:35:24;99250.98;;;20.66;91.44
47913;BME280;33676;51.006;17.180;2023-07-02T08:40:20;99253.12;;;20.77;91.43
47913;BME280;33676;51.006;17.180;2023-07-02T08:42:50;99257.91;;;20.81;91.53
47913;BME280;33676;51.006;17.180;2023-07-02T08:45:19;99266.22;;;20.88;91.71
47913;BME280;33676;51.006;17.180;2023-07-02T08:47:51;99270.21;;;20.92;91.42
47913;BME280;33676;51.006;17.180;2023-07-02T08:50:22;99267.91;;;20.95;91.18
47913;BME280;33676;51.006;17.180;2023-07-02T08:52:54;99267.20;;;20.99;90.87
47913;BME280;33676;51.006;17.180;2023-07-02T08:55:22;99271.42;;;21.09;90.62
47913;BME280;33676;51.006;17.180;2023-07-02T08:57:53;99272.66;;;21.22;90.66
47913;BME280;33676;51.006;17.180;2023-07-02T09:00:22;99277.16;;;21.38;90.44
47913;BME280;33676;51.006;17.180;2023-07-02T09:02:51;99280.46;;;21.51;89.81
47913;BME280;33676;51.006;17.180;2023-07-02T09:05:19;99283.08;;;21.60;89.77
47913;BME280;33676;51.006;17.180;2023-07-02T09:07:49;99293.63;;;21.67;89.28
47913;BME280;33676;51.006;17.180;2023-07-02T09:10:30;99299.46;;;21.66;89.11
47913;BME280;33676;51.006;17.180;2023-07-02T09:13:06;99303.88;;;21.60;88.76
47913;BME280;33676;51.006;17.180;2023-07-02T09:15:39;99303.63;;;21.54;88.84
47913;BME280;33676;51.006;17.180;2023-07-02T09:18:16;99296.77;;;21.46;88.17
47913;BME280;33676;51.006;17.180;2023-07-02T09:20:45;99289.58;;;21.35;87.87
47913;BME280;33676;51.006;17.180;2023-07-02T09:23:15;99290.09;;;21.26;87.66
47913;BME280;33676;51.006;17.180;2023-07-02T09:25:44;99290.52;;;21.14;87.43
47913;BME280;33676;51.006;17.180;2023-07-02T09:28:22;99290.11;;;21.01;87.13
47913;BME280;33676;51.006;17.180;2023-07-02T09:30:56;99285.07;;;20.89;87.32
47913;BME280;33676;51.006;17.180;2023-07-02T09:33:28;99279.05;;;20.85;87.53
47913;BME280;33676;51.006;17.180;2023-07-02T09:35:57;99277.98;;;20.84;87.69
47913;BME280;33676;51.006;17.180;2023-07-02T09:38:26;99271.19;;;20.82;87.69
47913;BME280;33676;51.006;17.180;2023-07-02T09:40:55;99296.59;;;20.80;87.66
47913;BME280;33676;51.006;17.180;2023-07-02T09:43:24;99323.16;;;20.77;87.76
47913;BME280;33676;51.006;17.180;2023-07-02T09:45:55;99329.24;;;20.72;87.65
47913;BME280;33676;51.006;17.180;2023-07-02T09:48:28;99323.14;;;20.67;87.57
47913;BME280;33676;51.006;17.180;2023-07-02T09:50:58;99326.34;;;20.64;87.51
47913;BME280;33676;51.006;17.180;2023-07-02T09:53:28;99328.77;;;20.63;87.49
47913;BME280;33676;51.006;17.180;2023-07-02T09:55:57;99329.27;;;20.61;87.08
47913;BME280;33676;51.006;17.180;2023-07-02T09:58:26;99322.38;;;20.61;87.19
47913;BME280;33676;51.006;17.180;2023-07-02T10:00:55;99325.45;;;20.64;87.24
47913;BME280;33676;51.006;17.180;2023-07-02T10:03:31;99323.67;;;20.65;87.08
47913;BME280;33676;51.006;17.180;2023-07-02T10:06:07;99330.52;;;20.69;87.04
47913;BME280;33676;51.006;17.180;2023-07-02T10:08:36;99339.54;;;20.70;86.88
47913;BME280;33676;51.006;17.180;2023-07-02T10:11:12;99336.86;;;20.72;87.00
47913;BME280;33676;51.006;17.180;2023-07-02T10:13:44;99333.46;;;20.73;87.08
47913;BME280;33676;51.006;17.180;2023-07-02T10:16:12;99328.58;;;20.74;87.12
47913;BME280;33676;51.006;17.180;2023-07-02T10:18:41;99324.24;;;20.74;86.99
47913;BME280;33676;51.006;17.180;2023-07-02T10:21:16;99323.76;;;20.73;86.81
47913;BME280;33676;51.006;17.180;2023-07-02T10:23:45;99324.29;;;20.71;86.82
47913;BME280;33676;51.006;17.180;2023-07-02T10:26:16;99328.96;;;20.67;86.58
47913;BME280;33676;51.006;17.180;2023-07-02T10:28:59;99329.34;;;20.64;86.50
47913;BME280;33676;51.006;17.180;2023-07-02T10:31:27;99326.96;;;20.64;86.67
47913;BME280;33676;51.006;17.180;2023-07-02T10:33:56;99330.33;;;20.62;86.46
47913;BME280;33676;51.006;17.180;2023-07-02T10:36:25;99333.85;;;20.61;86.47
47913;BME280;33676;51.006;17.180;2023-07-02T10:39:01;99329.62;;;20.63;86.56
47913;BME280;33676;51.006;17.180;2023-07-02T10:41:31;99331.59;;;20.70;86.62
47913;BME280;33676;51.006;17.180;2023-07-02T10:44:08;99330.48;;;20.79;86.67
47913;BME280;33676;51.006;17.180;2023-07-02T10:46:48;99325.89;;;20.92;86.87
47913;BME280;33676;51.006;17.180;2023-07-02T10:49:18;99325.06;;;21.11;87.10
47913;BME280;33676;51.006;17.180;2023-07-02T10:52:01;99327.00;;;21.33;87.07
47913;BME280;33676;51.006;17.180;2023-07-02T10:54:47;99333.25;;;21.56;86.60
47913;BME280;33676;51.006;17.180;2023-07-02T10:57:19;99327.70;;;21.72;86.20
47913;BME280;33676;51.006;17.180;2023-07-02T10:59:51;99325.39;;;21.90;86.22
47913;BME280;33676;51.006;17.180;2023-07-02T11:02:19;99321.39;;;22.07;86.05
47913;BME280;33676;51.006;17.180;2023-07-02T11:04:48;99320.38;;;22.23;85.73
47913;BME280;33676;51.006;17.180;2023-07-02T11:07:23;99316.83;;;22.38;85.47
47913;BME280;33676;51.006;17.180;2023-07-02T11:09:53;99320.67;;;22.52;85.45
47913;BME280;33676;51.006;17.180;2023-07-02T11:12:32;99317.85;;;22.64;85.50
47913;BME280;33676;51.006;17.180;2023-07-02T11:15:12;99317.50;;;22.76;84.99
47913;BME280;33676;51.006;17.180;2023-07-02T11:17:41;99315.19;;;22.86;84.38
47913;BME280;33676;51.006;17.180;2023-07-02T11:20:12;99308.45;;;23.09;84.42
47913;BME280;33676;51.006;17.180;2023-07-02T11:22:42;99306.02;;;23.54;85.68
47913;BME280;33676;51.006;17.180;2023-07-02T11:25:15;99304.52;;;24.15;86.88
47913;BME280;33676;51.006;17.180;2023-07-02T11:27:44;99304.35;;;24.72;86.92
47913;BME280;33676;51.006;17.180;2023-07-02T11:30:13;99308.33;;;25.25;86.33
47913;BME280;33676;51.006;17.180;2023-07-02T11:32:54;99300.80;;;25.70;85.44
47913;BME280;33676;51.006;17.180;2023-07-02T11:35:36;99302.20;;;26.05;84.82
47913;BME280;33676;51.006;17.180;2023-07-02T11:38:04;99304.43;;;26.36;83.96
47913;BME280;33676;51.006;17.180;2023-07-02T11:40:33;99300.73;;;26.60;83.03
47913;BME280;33676;51.006;17.180;2023-07-02T11:43:02;99305.95;;;26.79;81.45
47913;BME280;33676;51.006;17.180;2023-07-02T11:45:30;99308.30;;;26.92;78.65
47913;BME280;33676;51.006;17.180;2023-07-02T11:47:59;99302.59;;;27.04;77.72
47913;BME280;33676;51.006;17.180;2023-07-02T11:50:27;99303.78;;;27.28;77.73
47913;BME280;33676;51.006;17.180;2023-07-02T11:52:58;99308.14;;;27.57;76.85
47913;BME280;33676;51.006;17.180;2023-07-02T11:55:28;99301.86;;;27.80;75.59
47913;BME280;33676;51.006;17.180;2023-07-02T11:57:57;99296.16;;;28.08;75.97
47913;BME280;33676;51.006;17.180;2023-07-02T12:00:25;99302.61;;;28.29;75.46
47913;BME280;33676;51.006;17.180;2023-07-02T12:02:55;99301.70;;;28.37;73.59
47913;BME280;33676;51.006;17.180;2023-07-02T12:05:24;99302.42;;;28.41;73.01
47913;BME280;33676;51.006;17.180;2023-07-02T12:07:52;99314.33;;;28.53;71.48
47913;BME280;33676;51.006;17.180;2023-07-02T12:10:21;99309.10;;;28.67;70.52
47913;BME280;33676;51.006;17.180;2023-07-02T12:21:15;99300.53;;;28.94;69.57
47913;BME280;33676;51.006;17.180;2023-07-02T12:23:46;99294.36;;;29.02;69.13
47913;BME280;33676;51.006;17.180;2023-07-02T12:26:14;99291.52;;;29.14;69.56
47913;BME280;33676;51.006;17.180;2023-07-02T12:28:43;99291.89;;;29.31;69.14
47913;BME280;33676;51.006;17.180;2023-07-02T12:31:12;99287.94;;;29.52;69.26
47913;BME280;33676;51.006;17.180;2023-07-02T12:33:41;99286.83;;;29.75;68.98
47913;BME280;33676;51.006;17.180;2023-07-02T12:36:10;99284.09;;;30.00;69.13
47913;BME280;33676;51.006;17.180;2023-07-02T12:38:38;99285.96;;;30.29;67.32
47913;BME280;33676;51.006;17.180;2023-07-02T12:41:07;99292.23;;;30.25;64.63
47913;BME280;33676;51.006;17.180;2023-07-02T12:43:36;99289.59;;;30.00;63.77
47913;BME280;33676;51.006;17.180;2023-07-02T12:46:06;99280.60;;;29.80;63.55
47913;BME280;33676;51.006;17.180;2023-07-02T12:48:35;99283.70;;;29.94;63.61
47913;BME280;33676;51.006;17.180;2023-07-02T12:51:04;99287.26;;;29.87;62.90
47913;BME280;33676;51.006;17.180;2023-07-02T12:53:33;99283.30;;;29.66;62.54
47913;BME280;33676;51.006;17.180;2023-07-02T12:56:02;99289.98;;;29.45;62.45
47913;BME280;33676;51.006;17.180;2023-07-02T12:58:31;99288.52;;;29.35;62.84
47913;BME280;33676;51.006;17.180;2023-07-02T13:01:00;99291.58;;;29.10;63.02
47913;BME280;33676;51.006;17.180;2023-07-02T13:03:32;99295.55;;;28.83;62.35
47913;BME280;33676;51.006;17.180;2023-07-02T13:06:02;99302.84;;;28.57;61.73
47913;BME280;33676;51.006;17.180;2023-07-02T13:08:34;99301.30;;;28.28;61.21
47913;BME280;33676;51.006;17.180;2023-07-02T13:11:02;99296.18;;;28.12;61.52
47913;BME280;33676;51.006;17.180;2023-07-02T13:13:31;99298.70;;;28.25;62.22
47913;BME280;33676;51.006;17.180;2023-07-02T13:16:03;99300.55;;;28.22;62.08
47913;BME280;33676;51.006;17.180;2023-07-02T13:18:32;99302.39;;;28.04;62.05